createdAt,value
2018-01-19T04:32:34.918Z,1.30
2018-01-19T04:35:08.556Z,0.90
2018-01-19T04:37:43.174Z,1.25
2018-01-19T04:40:17.053Z,0.80
2018-01-19T04:42:50.843Z,0.90
2018-01-19T04:45:24.644Z,1.70
2018-01-19T04:47:58.459Z,1.92
2018-01-19T04:50:32.200Z,1.50
2018-01-19T04:53:06.625Z,1.58
2018-01-19T04:55:40.424Z,1.27
2018-01-19T04:58:38.378Z,1.05
2018-01-19T05:01:12.899Z,1.00
2018-01-19T05:03:46.571Z,1.33
2018-01-19T05:06:20.288Z,1.15
2018-01-19T05:08:54.136Z,1.65
2018-01-19T05:11:27.991Z,1.70
2018-01-19T05:14:01.978Z,1.45
2018-01-19T05:16:35.855Z,1.20
2018-01-19T05:19:09.651Z,1.02
2018-01-19T05:21:53.589Z,1.48
2018-01-19T05:24:27.428Z,1.40
2018-01-19T05:27:02.057Z,1.10
2018-01-19T05:29:36.576Z,1.40
2018-01-19T05:32:10.420Z,1.60
2018-01-19T05:34:44.101Z,1.80
2018-01-19T05:37:17.920Z,1.20
2018-01-19T05:39:52.904Z,1.55
2018-01-19T05:42:26.768Z,1.60
2018-01-19T05:45:00.533Z,2.00
2018-01-19T05:47:34.983Z,1.90
2018-01-19T05:50:08.685Z,1.60
2018-01-19T05:52:45.548Z,1.92
2018-01-19T05:55:19.348Z,1.98
2018-01-19T05:57:53.162Z,2.40
2018-01-19T06:00:27.972Z,1.50
2018-01-19T06:03:01.894Z,1.17
2018-01-19T06:05:35.643Z,1.52
2018-01-19T06:08:09.436Z,0.90
2018-01-19T06:10:44.045Z,1.35
2018-01-19T06:13:23.408Z,2.83
2018-01-19T06:15:57.222Z,1.85
2018-01-19T06:18:30.899Z,1.80
2018-01-19T06:21:12.144Z,1.30
2018-01-19T06:23:45.959Z,1.25
2018-01-19T06:26:19.769Z,1.45
2018-01-19T06:28:53.886Z,1.37
2018-01-19T06:31:29.444Z,1.23
2018-01-19T06:34:03.336Z,0.98
2018-01-19T06:36:37.072Z,1.20
2018-01-19T06:39:10.942Z,1.40
2018-01-19T06:41:46.017Z,1.23
2018-01-19T06:44:19.791Z,1.85
2018-01-19T06:46:53.595Z,1.23
2018-01-19T06:49:27.553Z,1.45
2018-01-19T06:52:01.520Z,1.50
2018-01-19T06:54:35.163Z,1.52
2018-01-19T06:57:08.863Z,2.03
2018-01-19T06:59:42.593Z,2.37
2018-01-19T07:02:16.279Z,2.10
2018-01-19T07:04:50.067Z,1.27
2018-01-19T07:07:25.094Z,1.92
2018-01-19T07:09:59.691Z,1.60
2018-01-19T07:12:35.217Z,1.50
2018-01-19T07:15:09.217Z,1.10
2018-01-19T07:17:43.351Z,1.42
2018-01-19T07:20:17.748Z,2.40
2018-01-19T07:22:52.846Z,1.05
2018-01-19T07:25:27.793Z,1.10
2018-01-19T07:28:02.273Z,1.70
2018-01-19T07:30:36.470Z,1.30
2018-01-19T07:33:10.956Z,1.50
2018-01-19T07:35:45.160Z,1.40
2018-01-19T07:38:19.366Z,2.10
2018-01-19T07:40:53.442Z,1.70
2018-01-19T07:43:28.675Z,1.98
2018-01-19T07:46:02.953Z,1.60
2018-01-19T07:48:37.795Z,1.27
2018-01-19T07:51:12.347Z,1.23
2018-01-19T07:53:46.379Z,1.70
2018-01-19T07:56:20.292Z,1.40
2018-01-19T07:58:54.147Z,1.50
2018-01-19T08:01:27.957Z,1.80
2018-01-19T08:04:01.756Z,1.30
2018-01-19T08:06:35.534Z,1.80
2018-01-19T08:09:09.386Z,1.90
2018-01-19T08:11:43.859Z,2.08
2018-01-19T08:14:17.452Z,1.00
2018-01-19T08:16:51.364Z,1.20
2018-01-19T08:19:25.959Z,1.30
2018-01-19T08:21:59.745Z,1.55
2018-01-19T08:24:34.215Z,2.40
2018-01-19T08:27:07.933Z,1.20
2018-01-19T08:29:41.913Z,2.25
2018-01-19T08:32:15.812Z,2.28
2018-01-19T08:34:50.364Z,2.67
2018-01-19T08:37:24.140Z,2.55
2018-01-19T08:39:58.988Z,3.17
2018-01-19T08:42:32.805Z,2.83
2018-01-19T08:45:07.332Z,1.37
2018-01-19T08:47:40.980Z,2.20
2018-01-19T08:50:18.247Z,2.97
2018-01-19T08:52:52.080Z,2.35
2018-01-19T08:55:25.832Z,1.30
2018-01-19T08:57:59.660Z,1.90
2018-01-19T09:00:33.736Z,2.20
2018-01-19T09:03:08.751Z,1.37
2018-01-19T09:05:42.836Z,1.95
2018-01-19T09:08:18.410Z,2.70
2018-01-19T09:10:52.256Z,3.67
2018-01-19T09:13:26.751Z,1.42
2018-01-19T09:16:00.684Z,8.15
2018-01-19T09:18:34.461Z,1.92
2018-01-19T09:21:08.604Z,2.85
2018-01-19T09:23:44.008Z,1.70
2018-01-19T09:26:17.857Z,1.85
2018-01-19T09:28:52.451Z,2.08
2018-01-19T09:31:26.279Z,1.77
2018-01-19T09:34:00.920Z,2.17
2018-01-19T09:36:34.719Z,2.78
2018-01-19T09:39:08.573Z,1.85
2018-01-19T09:41:43.110Z,1.60
2018-01-19T09:44:16.891Z,2.12
2018-01-19T09:46:50.642Z,1.90
2018-01-19T09:49:24.423Z,2.08
2018-01-19T09:51:58.276Z,2.33
2018-01-19T09:54:33.151Z,1.85
2018-01-19T09:57:06.906Z,1.60
2018-01-19T09:59:40.689Z,1.30
2018-01-19T10:02:15.307Z,5.70
2018-01-19T10:04:48.919Z,1.55
2018-01-19T10:07:22.641Z,1.20
2018-01-19T10:09:56.495Z,1.12
2018-01-19T10:12:31.263Z,1.25
2018-01-19T10:15:05.348Z,2.03
2018-01-19T10:17:39.076Z,1.95
2018-01-19T10:20:12.939Z,1.40
2018-01-19T10:22:46.776Z,3.78
2018-01-19T10:25:20.548Z,1.48
2018-01-19T10:27:54.333Z,1.60
2018-01-19T10:30:28.158Z,3.65
2018-01-19T10:33:01.884Z,2.58
2018-01-19T10:35:36.461Z,1.77
2018-01-19T10:38:10.300Z,1.70
2018-01-19T10:40:44.049Z,1.70
2018-01-19T10:43:18.643Z,1.75
2018-01-19T10:45:52.463Z,1.65
2018-01-19T10:48:26.275Z,1.42
2018-01-19T10:51:00.105Z,1.10
2018-01-19T10:53:34.609Z,1.17
2018-01-19T10:56:08.251Z,1.48
2018-01-19T10:58:42.738Z,1.55
2018-01-19T11:01:17.264Z,1.60
2018-01-19T11:03:50.991Z,1.90
2018-01-19T11:06:25.605Z,1.65
2018-01-19T11:08:59.473Z,1.45
2018-01-19T11:11:33.203Z,2.47
2018-01-19T11:14:07.394Z,1.35
2018-01-19T11:16:42.432Z,1.92
2018-01-19T11:19:16.081Z,1.70
2018-01-19T11:21:49.971Z,1.90
2018-01-19T11:24:23.751Z,3.12
2018-01-19T11:27:01.681Z,3.33
2018-01-19T11:29:35.512Z,2.75
2018-01-19T11:32:09.403Z,1.40
2018-01-19T11:34:43.215Z,1.12
2018-01-19T11:37:17.228Z,2.33
2018-01-19T11:39:51.751Z,2.40
2018-01-19T11:42:26.452Z,7.07
2018-01-19T11:45:00.995Z,1.58
2018-01-19T11:47:35.588Z,1.35
2018-01-19T11:50:09.400Z,1.60
2018-01-19T11:52:43.231Z,1.60
2018-01-19T11:55:17.020Z,1.65
2018-01-19T11:57:51.171Z,1.90
2018-01-19T12:00:24.928Z,1.40
2018-01-19T12:02:58.683Z,2.62
2018-01-19T12:05:33.514Z,1.55
2018-01-19T12:08:12.264Z,1.90
2018-01-19T12:10:46.452Z,1.40
2018-01-19T12:13:21.754Z,1.12
2018-01-19T12:15:55.554Z,0.98
2018-01-19T12:18:29.372Z,1.20
2018-01-19T12:21:03.409Z,1.40
2018-01-19T12:23:38.188Z,1.15
2018-01-19T12:26:13.556Z,1.73
2018-01-19T12:28:47.332Z,1.50
2018-01-19T12:31:21.887Z,2.22
2018-01-19T12:33:55.588Z,2.00
2018-01-19T12:36:30.230Z,0.98
2018-01-19T12:39:04.183Z,1.77
2018-01-19T12:41:38.740Z,1.52
2018-01-19T12:44:12.424Z,1.70
2018-01-19T12:46:47.180Z,2.08
2018-01-19T12:49:20.880Z,1.80
2018-01-19T12:51:54.731Z,1.50
2018-01-19T12:54:28.542Z,1.33
2018-01-19T12:57:02.352Z,1.60
2018-01-19T12:59:37.011Z,2.42
2018-01-19T13:02:10.764Z,1.27
2018-01-19T13:04:44.544Z,1.62
2018-01-19T13:07:18.368Z,1.83
2018-01-19T13:09:52.180Z,2.53
2018-01-19T13:12:26.776Z,6.37
2018-01-19T13:15:00.596Z,1.48
2018-01-19T13:17:35.099Z,1.27
2018-01-19T13:20:08.879Z,2.35
2018-01-19T13:22:42.702Z,2.25
2018-01-19T13:25:16.631Z,1.77
2018-01-19T13:27:50.424Z,1.70
2018-01-19T13:30:24.272Z,1.50
2018-01-19T13:32:57.977Z,6.22
2018-01-19T13:35:31.772Z,1.60
2018-01-19T13:38:05.936Z,1.45
2018-01-19T13:40:39.761Z,2.45
2018-01-19T13:43:14.049Z,2.72
2018-01-19T13:45:48.826Z,1.00
2018-01-19T13:48:22.396Z,1.30
2018-01-19T13:50:56.546Z,2.08
2018-01-19T13:53:30.241Z,1.60
2018-01-19T13:56:04.848Z,1.40
2018-01-19T13:58:39.362Z,1.60
2018-01-19T14:01:14.016Z,2.20
2018-01-19T14:03:47.757Z,1.30
2018-01-19T14:06:21.732Z,3.40
2018-01-19T14:08:55.560Z,2.53
2018-01-19T14:11:29.351Z,3.33
2018-01-19T14:14:03.646Z,1.58
2018-01-19T14:16:37.440Z,1.50
2018-01-19T14:19:11.312Z,1.50
2018-01-19T14:21:45.768Z,2.20
2018-01-19T14:24:19.647Z,3.00
2018-01-19T14:26:53.308Z,1.80
2018-01-19T14:29:27.028Z,2.37
2018-01-19T14:32:00.817Z,3.22
2018-01-19T14:34:34.664Z,2.75
2018-01-19T14:37:08.325Z,2.87
2018-01-19T14:39:42.065Z,2.70
2018-01-19T14:42:15.839Z,2.05
2018-01-19T14:44:49.731Z,2.10
2018-01-19T14:47:24.428Z,1.40
2018-01-19T14:49:58.268Z,4.07
2018-01-19T14:52:32.166Z,2.05
2018-01-19T14:55:06.008Z,2.08
2018-01-19T14:57:39.823Z,4.57
2018-01-19T15:00:13.561Z,2.08
2018-01-19T15:02:47.284Z,3.40
2018-01-19T15:05:21.059Z,2.60
2018-01-19T15:07:55.632Z,1.60
2018-01-19T15:10:29.312Z,1.40
2018-01-19T15:13:03.944Z,1.42
2018-01-19T15:15:37.659Z,1.55
2018-01-19T15:18:12.283Z,1.10
2018-01-19T15:20:45.920Z,0.75
2018-01-19T15:23:19.731Z,1.20
2018-01-19T15:25:53.507Z,1.52
2018-01-19T15:28:27.401Z,1.60
2018-01-19T15:31:01.034Z,1.50
2018-01-19T15:33:34.900Z,6.20
2018-01-19T15:36:08.535Z,0.80
2018-01-19T15:38:42.385Z,1.27
2018-01-19T15:41:16.091Z,1.00
2018-01-19T15:43:49.895Z,0.93
2018-01-19T15:46:24.346Z,1.70
2018-01-19T15:48:58.085Z,1.23
2018-01-19T15:51:32.776Z,2.08
2018-01-19T15:54:07.244Z,1.35
2018-01-19T15:56:42.138Z,6.40
2018-01-19T15:59:16.033Z,1.80
2018-01-19T16:01:49.774Z,2.55
2018-01-19T16:04:24.385Z,3.83
2018-01-19T16:06:58.974Z,3.03
2018-01-19T16:09:33.550Z,2.22
2018-01-19T16:12:08.066Z,1.83
2018-01-19T16:14:41.791Z,3.03
2018-01-19T16:17:15.633Z,2.10
2018-01-19T16:19:49.525Z,2.97
2018-01-19T16:22:24.098Z,2.12
2018-01-19T16:24:58.038Z,11.82
2018-01-19T16:27:31.905Z,10.45
2018-01-19T16:30:06.423Z,4.07
2018-01-19T16:32:40.193Z,10.10
2018-01-19T16:35:14.760Z,3.25
2018-01-19T16:37:48.474Z,2.17
2018-01-19T16:40:22.440Z,1.90
2018-01-19T16:42:56.509Z,3.47
2018-01-19T16:45:30.990Z,6.25
2018-01-19T16:48:04.750Z,5.15
2018-01-19T16:50:38.643Z,8.13
2018-01-19T16:53:12.484Z,5.53
2018-01-19T16:55:46.363Z,4.28
2018-01-19T16:58:20.091Z,3.08
2018-01-19T17:00:54.644Z,4.22
2018-01-19T17:03:28.517Z,4.80
2018-01-19T17:06:02.261Z,3.95
2018-01-19T17:08:36.117Z,3.45
2018-01-19T17:11:10.079Z,3.97
2018-01-19T17:13:46.679Z,3.67
2018-01-19T17:16:21.152Z,3.85
2018-01-19T17:18:55.722Z,3.83
2018-01-19T17:21:29.386Z,3.58
2018-01-19T17:24:03.325Z,3.72
2018-01-19T17:26:38.031Z,3.47
2018-01-19T17:29:12.602Z,4.45
2018-01-19T17:31:46.579Z,4.72
2018-01-19T17:34:20.377Z,6.18
2018-01-19T17:36:54.126Z,5.12
2018-01-19T17:39:28.744Z,5.40
2018-01-19T17:42:03.220Z,5.53
2018-01-19T17:44:37.009Z,5.28
2018-01-19T17:47:10.788Z,5.60
2018-01-19T17:49:45.373Z,6.20
2018-01-19T17:52:19.189Z,5.40
2018-01-19T17:54:53.056Z,5.97
2018-01-19T17:57:26.815Z,5.45
2018-01-19T18:00:00.760Z,4.25
2018-01-19T18:02:35.536Z,5.22
2018-01-19T18:05:09.263Z,4.57
2018-01-19T18:07:43.107Z,4.90
2018-01-19T18:10:17.012Z,6.07
2018-01-19T18:12:51.311Z,5.35
2018-01-19T18:15:25.800Z,4.95
2018-01-19T18:17:59.625Z,6.30
2018-01-19T18:20:33.417Z,5.75
2018-01-19T18:23:07.084Z,5.25
2018-01-19T18:25:40.911Z,6.22
2018-01-19T18:28:14.772Z,5.43
2018-01-19T18:30:49.325Z,5.85
2018-01-19T18:33:23.224Z,5.25
2018-01-19T18:35:57.047Z,5.30
2018-01-19T18:38:30.996Z,5.68
2018-01-19T18:41:05.484Z,5.80
2018-01-19T18:43:39.357Z,6.40
2018-01-19T18:46:13.122Z,7.05
2018-01-19T18:48:47.120Z,5.15
2018-01-19T18:51:20.948Z,6.22
2018-01-19T18:53:54.827Z,6.00
2018-01-19T18:56:28.664Z,6.05
2018-01-19T18:59:02.452Z,5.53
2018-01-19T19:01:36.265Z,4.60
2018-01-19T19:04:10.092Z,5.25
2018-01-19T19:06:44.105Z,4.95
2018-01-19T19:09:17.965Z,5.45
2018-01-19T19:11:51.773Z,4.25
2018-01-19T19:14:26.488Z,4.85
2018-01-19T19:17:00.408Z,5.53
2018-01-19T19:19:34.970Z,6.03
2018-01-19T19:22:09.564Z,5.15
2018-01-19T19:24:44.191Z,6.15
2018-01-19T19:27:17.982Z,5.15
2018-01-19T19:29:51.874Z,6.25
2018-01-19T19:32:25.705Z,7.95
2018-01-19T19:35:00.268Z,7.03
2018-01-19T19:37:34.028Z,6.30
2018-01-19T19:40:07.748Z,6.80
2018-01-19T19:42:42.399Z,6.80
2018-01-19T19:45:16.280Z,6.35
2018-01-19T19:47:51.622Z,5.62
2018-01-19T19:50:26.216Z,6.07
2018-01-19T19:52:59.996Z,6.50
2018-01-19T19:55:34.007Z,8.65
2018-01-19T19:58:07.850Z,6.68
2018-01-19T20:00:42.440Z,7.93
2018-01-19T20:03:16.214Z,6.78
2018-01-19T20:05:50.119Z,9.63
2018-01-19T20:08:24.671Z,7.70
2018-01-19T20:10:58.495Z,7.22
2018-01-19T20:13:32.641Z,7.82
2018-01-19T20:16:07.115Z,7.72
2018-01-19T20:18:41.015Z,7.80
2018-01-19T20:21:14.894Z,6.72
2018-01-19T20:23:50.786Z,7.05
2018-01-19T20:26:24.566Z,12.65
2018-01-19T20:28:58.746Z,10.20
2018-01-19T20:31:33.320Z,7.68
2018-01-19T20:34:07.103Z,9.63
2018-01-19T20:36:41.646Z,8.93
2018-01-19T20:39:15.567Z,9.10
2018-01-19T20:41:49.409Z,9.40
2018-01-19T20:44:23.314Z,8.68
2018-01-19T20:47:00.366Z,8.77
2018-01-19T20:49:34.221Z,10.10
2018-01-19T20:52:08.015Z,9.45
2018-01-19T20:54:42.685Z,10.02
2018-01-19T20:57:17.220Z,8.80
2018-01-19T20:59:50.989Z,8.93
2018-01-19T21:02:24.844Z,9.40
2018-01-19T21:04:58.720Z,9.77
2018-01-19T21:07:32.548Z,10.60
2018-01-19T21:10:07.792Z,11.20
2018-01-19T21:12:41.779Z,8.05
2018-01-19T21:15:15.536Z,8.82
2018-01-19T21:17:50.137Z,8.82
2018-01-19T21:20:23.956Z,9.32
2018-01-19T21:22:57.679Z,9.43
2018-01-19T21:25:32.352Z,10.13
2018-01-19T21:28:06.286Z,8.85
2018-01-19T21:30:40.898Z,10.65
2018-01-19T21:33:14.583Z,8.95
2018-01-19T21:35:48.552Z,8.43
2018-01-19T21:38:22.307Z,7.57
2018-01-19T21:40:56.953Z,6.40
2018-01-19T21:43:30.872Z,7.03
2018-01-19T21:46:05.564Z,7.22
2018-01-19T21:48:39.549Z,6.18
2018-01-19T21:51:14.102Z,8.52
2018-01-19T21:53:47.860Z,6.90
2018-01-19T21:56:28.282Z,5.57
2018-01-19T21:59:02.131Z,5.50
